createdAt,value
2024-01-22T00:02:14.439Z,7.60
2024-01-22T00:04:42.205Z,8.13
2024-01-22T00:07:11.139Z,7.50
2024-01-22T00:09:39.315Z,7.28
2024-01-22T00:12:07.679Z,7.43
2024-01-22T00:14:35.980Z,7.00
2024-01-22T00:17:03.661Z,6.32
2024-01-22T00:19:33.673Z,7.10
2024-01-22T00:22:01.708Z,6.07
2024-01-22T00:24:30.663Z,6.18
2024-01-22T00:26:58.365Z,6.05
2024-01-22T00:29:25.950Z,6.40
2024-01-22T00:31:53.897Z,6.28
2024-01-22T00:34:21.786Z,6.03
2024-01-22T00:36:49.940Z,5.80
2024-01-22T00:39:17.640Z,6.13
2024-01-22T00:41:46.666Z,6.05
2024-01-22T00:44:14.707Z,5.93
2024-01-22T00:46:42.684Z,5.90
2024-01-22T00:49:13.328Z,6.53
2024-01-22T00:51:40.952Z,6.78
2024-01-22T00:54:08.528Z,5.57
2024-01-22T00:56:36.247Z,6.47
2024-01-22T00:59:05.506Z,5.30
2024-01-22T01:01:33.807Z,5.85
2024-01-22T01:04:01.597Z,6.35
2024-01-22T01:06:31.931Z,5.53
2024-01-22T01:08:59.844Z,7.07
2024-01-22T01:11:27.930Z,6.10
2024-01-22T01:13:55.546Z,5.88
2024-01-22T01:16:24.623Z,5.75
2024-01-22T01:18:52.420Z,5.90
2024-01-22T01:21:23.865Z,7.00
2024-01-22T01:23:51.673Z,6.47
2024-01-22T01:26:19.575Z,6.63
2024-01-22T01:28:47.773Z,6.93
2024-01-22T01:31:15.777Z,6.13
2024-01-22T01:33:45.525Z,6.15
2024-01-22T01:36:13.423Z,6.57
2024-01-22T01:38:41.144Z,6.85
2024-01-22T01:41:09.131Z,5.95
2024-01-22T01:43:36.779Z,6.20
2024-01-22T01:46:04.594Z,6.18
2024-01-22T01:48:32.494Z,6.20
2024-01-22T01:51:01.922Z,6.38
2024-01-22T01:53:30.441Z,5.55
2024-01-22T01:56:00.031Z,5.90
2024-01-22T01:58:27.982Z,6.32
2024-01-22T02:00:56.685Z,6.63
2024-01-22T02:03:24.462Z,5.88
2024-01-22T02:05:52.147Z,5.88
2024-01-22T02:08:21.243Z,5.43
2024-01-22T02:10:49.824Z,5.63
2024-01-22T02:13:17.781Z,6.30
2024-01-22T02:15:45.844Z,5.63
2024-01-22T02:18:13.652Z,5.80
2024-01-22T02:20:41.651Z,5.47
2024-01-22T02:23:10.928Z,5.60
2024-01-22T02:25:38.726Z,5.20
2024-01-22T02:28:06.660Z,5.13
2024-01-22T02:30:34.272Z,5.25
2024-01-22T02:33:03.968Z,4.50
2024-01-22T02:35:31.679Z,5.38
2024-01-22T02:37:59.382Z,5.72
2024-01-22T02:40:28.419Z,5.18
2024-01-22T02:42:56.526Z,4.85
2024-01-22T02:45:24.166Z,5.63
2024-01-22T02:47:52.004Z,5.35
2024-01-22T02:50:20.392Z,5.07
2024-01-22T02:52:48.402Z,5.57
2024-01-22T02:55:18.991Z,5.50
2024-01-22T02:57:49.888Z,5.07
2024-01-22T03:00:18.848Z,5.20
2024-01-22T03:02:46.735Z,4.93
2024-01-22T03:05:15.183Z,4.72
2024-01-22T03:07:42.888Z,5.22
2024-01-22T03:10:12.098Z,5.22
2024-01-22T03:12:39.885Z,3.45
2024-01-22T03:15:10.330Z,4.30
2024-01-22T03:17:38.158Z,4.45
2024-01-22T03:20:06.392Z,4.47
2024-01-22T03:22:33.950Z,4.30
2024-01-22T03:25:02.130Z,4.47
2024-01-22T03:27:29.854Z,4.13
2024-01-22T03:29:57.620Z,4.32
2024-01-22T03:32:28.482Z,3.88
2024-01-22T03:34:56.151Z,3.67
2024-01-22T03:37:23.714Z,4.20
2024-01-22T03:39:51.331Z,4.07
2024-01-22T03:42:19.679Z,3.92
2024-01-22T03:44:47.730Z,3.67
2024-01-22T03:47:15.518Z,3.47
2024-01-22T03:49:44.835Z,3.53
2024-01-22T03:52:12.638Z,3.58
2024-01-22T03:54:40.227Z,3.75
2024-01-22T03:57:08.718Z,3.70
2024-01-22T03:59:36.654Z,3.80
2024-01-22T04:02:04.480Z,3.60
2024-01-22T04:04:32.300Z,3.40
2024-01-22T04:07:01.675Z,3.60
2024-01-22T04:09:29.257Z,3.60
2024-01-22T04:11:56.828Z,3.05
2024-01-22T04:14:24.477Z,3.63
2024-01-22T04:16:52.662Z,3.20
2024-01-22T04:19:20.439Z,3.00
2024-01-22T04:21:48.953Z,2.92
2024-01-22T04:24:18.374Z,3.25
2024-01-22T04:26:46.048Z,2.97
2024-01-22T04:29:13.626Z,3.10
2024-01-22T04:31:41.757Z,2.97
2024-01-22T04:34:09.512Z,2.95
2024-01-22T04:36:37.431Z,3.15
2024-01-22T04:39:06.023Z,2.85
2024-01-22T04:41:35.481Z,3.08
2024-01-22T04:44:03.165Z,2.53
2024-01-22T04:46:30.755Z,2.70
2024-01-22T04:48:58.714Z,2.92
2024-01-22T04:51:26.657Z,2.47
2024-01-22T04:53:57.368Z,2.80
2024-01-22T04:56:24.959Z,2.90
2024-01-22T04:58:53.979Z,2.83
2024-01-22T05:01:21.831Z,2.83
2024-01-22T05:03:49.705Z,2.60
2024-01-22T05:06:17.610Z,2.60
2024-01-22T05:08:46.159Z,2.95
2024-01-22T05:11:14.403Z,2.67
2024-01-22T05:13:49.505Z,2.65
2024-01-22T05:16:18.529Z,2.95
2024-01-22T05:18:46.595Z,2.95
2024-01-22T05:21:14.606Z,2.92
2024-01-22T05:23:42.698Z,2.65
2024-01-22T05:26:10.734Z,2.90
2024-01-22T05:28:38.358Z,3.10
2024-01-22T05:31:06.233Z,2.70
2024-01-22T05:33:35.237Z,3.05
2024-01-22T05:36:02.995Z,2.45
2024-01-22T05:38:30.973Z,2.97
2024-01-22T05:40:58.624Z,2.67
2024-01-22T05:43:29.132Z,2.60
2024-01-22T05:45:56.845Z,2.90
2024-01-22T05:48:24.706Z,2.60
2024-01-22T05:50:53.732Z,2.83
2024-01-22T05:53:23.492Z,2.50
2024-01-22T05:55:51.116Z,2.50
2024-01-22T05:58:19.092Z,2.65
2024-01-22T06:00:46.760Z,2.38
2024-01-22T06:03:15.027Z,2.53
2024-01-22T06:05:42.789Z,2.30
2024-01-22T06:08:12.127Z,1.80
2024-01-22T06:10:39.803Z,2.10
2024-01-22T06:13:07.786Z,2.22
2024-01-22T06:15:35.352Z,2.03
2024-01-22T06:18:05.148Z,1.88
2024-01-22T06:20:35.157Z,2.40
2024-01-22T06:23:04.025Z,1.77
2024-01-22T06:25:33.110Z,2.00
2024-01-22T06:28:00.765Z,2.00
2024-01-22T06:30:28.426Z,1.80
2024-01-22T06:32:56.411Z,1.88
2024-01-22T06:35:25.618Z,1.63
2024-01-22T06:37:53.593Z,2.00
2024-01-22T06:40:21.233Z,1.92
2024-01-22T06:42:50.225Z,2.35
2024-01-22T06:45:19.216Z,2.20
2024-01-22T06:47:46.914Z,1.80
2024-01-22T06:50:15.504Z,2.10
2024-01-22T06:52:43.402Z,2.10
2024-01-22T06:55:11.399Z,2.10
2024-01-22T06:57:38.972Z,1.70
2024-01-22T07:00:09.527Z,1.90
2024-01-22T07:02:39.232Z,1.90
2024-01-22T07:05:08.570Z,2.10
2024-01-22T07:07:37.055Z,2.10
2024-01-22T07:10:06.736Z,1.90
2024-01-22T07:12:34.361Z,1.90
2024-01-22T07:15:03.192Z,1.95
2024-01-22T07:17:32.211Z,2.00
2024-01-22T07:19:59.888Z,1.80
2024-01-22T07:22:27.484Z,1.90
2024-01-22T07:24:55.140Z,1.95
2024-01-22T07:27:22.756Z,2.10
2024-01-22T07:29:50.349Z,1.90
2024-01-22T07:32:18.243Z,2.42
2024-01-22T07:34:47.286Z,2.10
2024-01-22T07:37:14.942Z,2.20
2024-01-22T07:39:42.665Z,2.00
2024-01-22T07:42:10.973Z,2.22
2024-01-22T07:44:38.662Z,2.20
2024-01-22T07:47:06.375Z,2.30
2024-01-22T07:49:34.346Z,2.58
2024-01-22T07:52:04.137Z,2.08
2024-01-22T07:54:32.632Z,2.30
2024-01-22T07:57:00.709Z,1.65
2024-01-22T07:59:28.586Z,1.90
2024-01-22T08:01:56.652Z,1.80
2024-01-22T08:04:24.458Z,2.15
2024-01-22T08:06:55.200Z,2.60
2024-01-22T08:09:24.253Z,2.17
2024-01-22T08:11:51.933Z,2.58
2024-01-22T08:14:19.649Z,2.20
2024-01-22T08:16:50.311Z,2.33
2024-01-22T08:19:18.114Z,2.95
2024-01-22T08:21:46.314Z,2.40
2024-01-22T08:24:14.972Z,1.90
2024-01-22T08:26:44.858Z,2.35
2024-01-22T08:29:14.315Z,2.50
2024-01-22T08:31:42.391Z,2.60
2024-01-22T08:34:10.664Z,2.15
2024-01-22T08:36:38.378Z,2.20
2024-01-22T08:39:07.318Z,2.63
2024-01-22T08:41:35.565Z,2.40
2024-01-22T08:44:06.628Z,2.42
2024-01-22T08:46:34.612Z,2.40
2024-01-22T08:49:02.580Z,2.50
2024-01-22T08:51:30.316Z,3.03
2024-01-22T08:53:57.944Z,3.08
2024-01-22T08:56:25.607Z,2.90
2024-01-22T08:58:53.597Z,2.90
2024-01-22T09:01:22.849Z,3.40
2024-01-22T09:03:50.735Z,3.33
2024-01-22T09:06:18.507Z,3.75
2024-01-22T09:08:46.474Z,3.58
2024-01-22T09:11:14.634Z,3.50
2024-01-22T09:13:44.028Z,4.20
2024-01-22T09:16:15.894Z,3.53
2024-01-22T09:18:45.209Z,3.92
2024-01-22T09:21:15.048Z,4.25
2024-01-22T09:23:42.902Z,4.30
2024-01-22T09:26:10.546Z,4.55
2024-01-22T09:28:38.739Z,4.78
2024-01-22T09:31:06.411Z,4.32
2024-01-22T09:33:34.315Z,4.47
2024-01-22T09:36:04.953Z,4.70
2024-01-22T09:38:33.258Z,4.30
2024-01-22T09:41:01.379Z,5.00
2024-01-22T09:43:29.352Z,5.00
2024-01-22T09:45:58.042Z,4.70
2024-01-22T09:48:25.780Z,5.13
2024-01-22T09:50:53.494Z,3.50
2024-01-22T09:53:23.333Z,4.68
2024-01-22T09:55:52.982Z,4.72
2024-01-22T09:58:23.350Z,3.13
2024-01-22T10:00:51.932Z,2.78
2024-01-22T10:03:19.743Z,2.75
2024-01-22T10:05:48.575Z,1.70
2024-01-22T10:08:16.248Z,1.77
2024-01-22T10:10:45.189Z,2.25
2024-01-22T10:13:14.056Z,2.03
2024-01-22T10:15:41.750Z,1.63
2024-01-22T10:18:12.889Z,2.20
2024-01-22T10:20:41.158Z,1.85
2024-01-22T10:23:09.144Z,1.58
2024-01-22T10:25:36.921Z,1.58
2024-01-22T10:28:09.938Z,1.35
2024-01-22T10:30:38.698Z,2.10
2024-01-22T10:33:10.931Z,1.55
2024-01-22T10:35:39.084Z,1.33
2024-01-22T10:38:07.785Z,1.67
2024-01-22T10:40:35.858Z,2.13
2024-01-22T10:45:58.483Z,1.25
2024-01-22T10:48:37.968Z,1.50
2024-01-22T10:51:12.213Z,1.73
2024-01-22T10:53:41.508Z,2.03
2024-01-22T10:56:14.171Z,1.90
2024-01-22T10:58:44.441Z,2.22
2024-01-22T11:01:18.256Z,1.75
2024-01-22T11:03:47.434Z,2.17
2024-01-22T11:06:18.849Z,1.45
2024-01-22T11:08:50.126Z,1.75
2024-01-22T11:11:18.979Z,2.03
2024-01-22T11:13:49.524Z,1.98
2024-01-22T11:16:18.563Z,2.63
2024-01-22T11:18:54.916Z,2.42
2024-01-22T11:21:23.444Z,2.20
2024-01-22T11:24:10.087Z,2.00
2024-01-22T11:26:42.647Z,2.08
2024-01-22T11:29:11.020Z,1.90
2024-01-22T11:31:40.292Z,2.63
2024-01-22T11:34:08.540Z,1.67
2024-01-22T11:36:54.800Z,3.10
2024-01-22T11:39:44.211Z,2.92
2024-01-22T11:42:27.365Z,2.58
2024-01-22T11:44:57.322Z,2.10
2024-01-22T11:47:26.655Z,2.78
2024-01-22T11:50:00.936Z,3.35
2024-01-22T11:52:29.303Z,2.60
2024-01-22T11:54:58.035Z,2.75
2024-01-22T11:57:27.074Z,3.50
2024-01-22T12:00:01.642Z,3.10
2024-01-22T12:02:31.078Z,2.50
2024-01-22T12:05:03.143Z,2.53
2024-01-22T12:07:34.666Z,3.85
2024-01-22T12:10:02.597Z,2.55
2024-01-22T12:12:30.329Z,2.75
2024-01-22T12:14:58.580Z,3.28
2024-01-22T12:17:26.458Z,2.55
2024-01-22T12:19:59.575Z,2.70
2024-01-22T12:22:29.090Z,2.95
2024-01-22T12:25:06.148Z,4.38
2024-01-22T12:27:33.916Z,2.97
2024-01-22T12:30:02.484Z,3.05
2024-01-22T12:32:30.928Z,3.38
2024-01-22T12:35:00.690Z,4.20
2024-01-22T12:37:31.710Z,4.05
2024-01-22T12:40:09.141Z,3.78
2024-01-22T12:42:36.925Z,3.63
2024-01-22T12:45:04.764Z,3.90
2024-01-22T12:47:35.785Z,3.25
2024-01-22T12:50:06.204Z,3.58
2024-01-22T12:52:34.225Z,3.90
2024-01-22T12:55:03.050Z,3.90
2024-01-22T12:57:31.946Z,3.58
2024-01-22T13:00:00.067Z,4.05
2024-01-22T13:02:28.171Z,3.25
2024-01-22T13:04:55.773Z,2.88
2024-01-22T13:07:24.898Z,3.92
2024-01-22T13:09:52.808Z,3.50
2024-01-22T13:12:22.001Z,3.53
2024-01-22T13:14:50.520Z,3.92
2024-01-22T13:17:18.344Z,3.67
2024-01-22T13:19:46.161Z,4.43
2024-01-22T13:22:15.951Z,4.45
2024-01-22T13:24:45.295Z,4.50
2024-01-22T13:27:14.271Z,4.93
2024-01-22T13:29:42.172Z,3.90
2024-01-22T13:32:10.046Z,4.25
2024-01-22T13:34:38.412Z,4.38
2024-01-22T13:37:06.319Z,4.38
2024-01-22T13:39:35.948Z,4.40
2024-01-22T13:42:06.496Z,5.25
2024-01-22T13:44:34.555Z,5.25
2024-01-22T13:47:02.340Z,5.68
2024-01-22T13:49:30.101Z,4.85
2024-01-22T13:52:03.571Z,4.72
2024-01-22T13:54:32.174Z,5.25
2024-01-22T13:57:00.984Z,4.32
2024-01-22T13:59:30.273Z,5.80
2024-01-22T14:01:58.658Z,5.20
2024-01-22T14:04:26.448Z,5.53
2024-01-22T14:06:54.768Z,5.05
2024-01-22T14:09:22.702Z,4.75
2024-01-22T14:11:50.382Z,5.28
2024-01-22T14:14:22.993Z,4.88
2024-01-22T14:16:55.985Z,6.55
2024-01-22T14:19:23.935Z,5.60
2024-01-22T14:21:53.221Z,5.05
2024-01-22T14:24:22.892Z,5.43
2024-01-22T14:26:50.764Z,5.00
2024-01-22T14:29:18.577Z,4.90
2024-01-22T14:31:46.356Z,4.55
2024-01-22T14:34:17.972Z,5.30
2024-01-22T14:36:45.893Z,4.72
2024-01-22T14:39:14.122Z,4.88
2024-01-22T14:41:41.873Z,5.38
2024-01-22T14:44:09.686Z,5.30
2024-01-22T14:46:40.113Z,4.68
2024-01-22T14:49:13.011Z,5.82
2024-01-22T14:51:48.436Z,4.90
2024-01-22T14:54:16.482Z,4.90
2024-01-22T14:56:44.835Z,5.10
2024-01-22T14:59:12.777Z,5.15
2024-01-22T15:01:40.360Z,4.80
2024-01-22T15:04:09.965Z,5.43
2024-01-22T15:06:39.613Z,5.75
2024-01-22T15:09:10.085Z,5.55
2024-01-22T15:11:39.198Z,5.55
2024-01-22T15:14:09.137Z,5.32
2024-01-22T15:16:37.246Z,5.57
2024-01-22T15:19:05.368Z,5.75
2024-01-22T15:21:33.161Z,5.10
2024-01-22T15:24:00.816Z,5.07
2024-01-22T15:26:30.258Z,5.25
2024-01-22T15:28:57.873Z,5.07
2024-01-22T15:31:25.604Z,5.50
2024-01-22T15:33:53.635Z,4.90
2024-01-22T15:36:21.778Z,5.40
2024-01-22T15:38:50.435Z,5.03
2024-01-22T15:41:19.388Z,4.75
2024-01-22T15:43:49.268Z,5.45
2024-01-22T15:46:17.166Z,5.15
2024-01-22T15:48:49.822Z,5.35
2024-01-22T15:51:17.588Z,5.20
2024-01-22T15:53:46.552Z,4.88
2024-01-22T15:56:14.504Z,5.22
2024-01-22T15:58:42.386Z,4.78
2024-01-22T16:01:11.371Z,4.55
2024-01-22T16:03:39.155Z,4.80
2024-01-22T16:06:07.407Z,5.40
2024-01-22T16:08:36.289Z,5.35
2024-01-22T16:11:04.447Z,5.68
2024-01-22T16:13:32.126Z,4.75
2024-01-22T16:15:59.819Z,4.22
2024-01-22T16:18:28.872Z,4.38
2024-01-22T16:20:56.746Z,4.18
2024-01-22T16:23:25.023Z,4.85
2024-01-22T16:25:53.045Z,5.15
2024-01-22T16:28:21.576Z,4.97
2024-01-22T16:30:49.677Z,4.60
2024-01-22T16:33:17.324Z,4.80
2024-01-22T16:35:46.577Z,4.95
2024-01-22T16:38:14.653Z,5.47
2024-01-22T16:40:42.340Z,5.60
2024-01-22T16:43:10.017Z,5.20
2024-01-22T16:45:37.815Z,6.10
2024-01-22T16:48:05.971Z,5.78
2024-01-22T16:50:33.573Z,6.72
2024-01-22T16:53:05.433Z,5.82
2024-01-22T16:55:33.166Z,5.32
2024-01-22T16:58:00.839Z,5.40
2024-01-22T17:00:29.085Z,5.82
2024-01-22T17:02:56.887Z,5.18
2024-01-22T17:05:24.558Z,4.90
2024-01-22T17:07:52.270Z,5.43
2024-01-22T17:10:21.928Z,4.80
2024-01-22T17:12:50.055Z,5.35
2024-01-22T17:15:18.723Z,5.60
2024-01-22T17:17:48.427Z,5.10
2024-01-22T17:20:17.273Z,5.15
2024-01-22T17:22:45.766Z,5.03
2024-01-22T17:25:14.548Z,5.68
2024-01-22T17:27:43.666Z,5.30
2024-01-22T17:30:12.223Z,5.43
2024-01-22T17:32:39.896Z,5.43
2024-01-22T17:35:08.746Z,5.18
2024-01-22T17:37:36.524Z,5.45
2024-01-22T17:40:04.836Z,4.63
2024-01-22T17:42:33.710Z,5.07
2024-01-22T17:45:03.558Z,5.30
2024-01-22T17:47:31.884Z,5.00
2024-01-22T17:50:00.560Z,5.25
2024-01-22T17:52:28.555Z,5.60
2024-01-22T17:54:56.178Z,5.20
2024-01-22T17:57:24.082Z,4.82
2024-01-22T17:59:52.046Z,5.15
2024-01-22T18:02:21.112Z,5.32
2024-01-22T18:04:48.724Z,5.35
2024-01-22T18:07:16.481Z,5.38
2024-01-22T18:09:45.347Z,4.60
2024-01-22T18:12:12.975Z,5.10
2024-01-22T18:14:40.635Z,4.80
2024-01-22T18:17:08.301Z,5.18
2024-01-22T18:19:37.311Z,5.85
2024-01-22T18:22:07.530Z,6.38
2024-01-22T18:24:35.242Z,6.85
2024-01-22T18:27:02.905Z,8.05
2024-01-22T18:29:31.836Z,4.70
2024-01-22T18:32:00.372Z,6.25
2024-01-22T18:34:28.084Z,5.07
2024-01-22T18:36:58.151Z,5.80
2024-01-22T18:39:26.003Z,6.55
2024-01-22T18:41:55.622Z,5.28
2024-01-22T18:44:23.225Z,5.20
2024-01-22T18:46:51.196Z,5.22
2024-01-22T18:49:19.027Z,5.50
2024-01-22T18:51:47.472Z,5.38
2024-01-22T18:54:17.735Z,5.72
2024-01-22T18:56:46.626Z,4.90
2024-01-22T18:59:15.358Z,5.28
2024-01-22T19:01:45.849Z,5.45
2024-01-22T19:04:13.708Z,5.45
2024-01-22T19:06:42.284Z,5.78
2024-01-22T19:09:10.471Z,5.85
2024-01-22T19:11:39.591Z,5.47
2024-01-22T19:14:07.439Z,5.50
2024-01-22T19:16:35.419Z,5.30
2024-01-22T19:19:04.336Z,5.00
2024-01-22T19:21:32.642Z,5.70
2024-01-22T19:24:01.087Z,5.95
2024-01-22T19:26:29.987Z,5.60
2024-01-22T19:28:59.905Z,5.57
2024-01-22T19:31:27.565Z,6.68
2024-01-22T19:33:57.482Z,6.00
2024-01-22T19:36:25.271Z,5.65
2024-01-22T19:38:53.882Z,5.10
2024-01-22T19:41:21.530Z,5.78
2024-01-22T19:43:49.297Z,5.05
2024-01-22T19:46:20.567Z,6.13
2024-01-22T19:48:48.636Z,6.10
2024-01-22T19:51:16.768Z,5.85
2024-01-22T19:53:45.505Z,6.30
2024-01-22T19:56:13.162Z,5.45
2024-01-22T19:58:43.434Z,6.05
2024-01-22T20:01:11.371Z,5.95
2024-01-22T20:03:40.573Z,5.82
2024-01-22T20:06:08.508Z,6.22
2024-01-22T20:08:36.166Z,5.63
2024-01-22T20:11:03.751Z,5.00
2024-01-22T20:13:32.242Z,5.57
2024-01-22T20:15:59.842Z,5.15
2024-01-22T20:18:28.290Z,4.95
2024-01-22T20:20:57.779Z,5.93
2024-01-22T20:23:25.799Z,5.22
2024-01-22T20:25:54.061Z,5.85
2024-01-22T20:28:25.101Z,5.72
2024-01-22T20:30:53.119Z,5.43
2024-01-22T20:33:20.877Z,4.78
2024-01-22T20:35:49.483Z,5.68
2024-01-22T20:38:18.539Z,5.90
2024-01-22T20:40:46.423Z,5.00
2024-01-22T20:43:15.223Z,5.15
2024-01-22T20:45:42.955Z,5.88
2024-01-22T20:48:11.060Z,5.03
2024-01-22T20:50:38.766Z,5.05
2024-01-22T20:53:06.809Z,5.55
2024-01-22T20:55:37.228Z,5.10
2024-01-22T20:58:05.197Z,4.90
2024-01-22T21:00:33.790Z,4.85
2024-01-22T21:03:02.064Z,4.25
2024-01-22T21:05:29.997Z,4.90
2024-01-22T21:07:57.943Z,5.85
2024-01-22T21:10:25.643Z,4.80
2024-01-22T21:12:54.822Z,4.90
2024-01-22T21:15:22.558Z,4.82
2024-01-22T21:17:50.415Z,5.00
2024-01-22T21:20:21.345Z,4.72
2024-01-22T21:22:49.373Z,5.28
2024-01-22T21:25:17.146Z,4.63
2024-01-22T21:27:45.435Z,5.72
2024-01-22T21:30:14.912Z,5.35
2024-01-22T21:32:42.868Z,5.90
2024-01-22T21:35:11.182Z,4.90
2024-01-22T21:37:38.905Z,4.88
2024-01-22T21:40:07.325Z,5.63
2024-01-22T21:42:36.737Z,4.75
2024-01-22T21:45:04.865Z,4.75
2024-01-22T21:47:33.973Z,4.70
2024-01-22T21:50:02.282Z,4.47
2024-01-22T21:52:29.895Z,4.90
2024-01-22T21:54:57.679Z,5.43
2024-01-22T21:57:25.535Z,5.38
2024-01-22T21:59:53.303Z,5.55
2024-01-22T22:02:21.532Z,5.22
2024-01-22T22:04:50.643Z,5.38
2024-01-22T22:07:19.275Z,4.90
2024-01-22T22:09:46.904Z,4.63
2024-01-22T22:12:15.944Z,4.70
2024-01-22T22:14:44.231Z,4.35
2024-01-22T22:17:11.905Z,5.30
2024-01-22T22:19:39.720Z,5.05
2024-01-22T22:22:08.947Z,5.38
2024-01-22T22:24:38.611Z,4.78
2024-01-22T22:27:07.677Z,5.32
2024-01-22T22:29:35.267Z,5.30
2024-01-22T22:32:02.946Z,5.00
2024-01-22T22:34:30.800Z,5.13
2024-01-22T22:36:58.500Z,5.47
2024-01-22T22:39:27.831Z,5.60
2024-01-22T22:41:56.451Z,5.65
2024-01-22T22:44:24.680Z,4.97
2024-01-22T22:46:52.691Z,4.85
2024-01-22T22:49:21.060Z,5.03
2024-01-22T22:51:48.799Z,4.93
2024-01-22T22:54:16.626Z,4.50
2024-01-22T22:56:45.741Z,5.78
2024-01-22T22:59:13.339Z,5.70
2024-01-22T23:01:41.123Z,4.88
2024-01-22T23:04:09.340Z,5.75
2024-01-22T23:06:37.130Z,5.10
2024-01-22T23:09:04.856Z,4.65
2024-01-22T23:11:32.643Z,5.05
2024-01-22T23:14:01.790Z,5.30
2024-01-22T23:16:29.618Z,6.45
2024-01-22T23:18:57.426Z,4.93
2024-01-22T23:21:25.085Z,5.30
2024-01-22T23:23:52.832Z,5.20
2024-01-22T23:26:20.685Z,6.32
2024-01-22T23:28:48.871Z,5.85
2024-01-22T23:31:20.962Z,5.63
2024-01-22T23:33:50.316Z,5.35
2024-01-22T23:36:18.436Z,5.57
2024-01-22T23:38:46.178Z,5.78
2024-01-22T23:41:14.785Z,5.50
2024-01-22T23:43:42.371Z,5.47
2024-01-22T23:46:10.132Z,5.85
2024-01-22T23:48:39.212Z,4.97
2024-01-22T23:51:07.187Z,5.55
2024-01-22T23:53:36.153Z,5.25
2024-01-22T23:56:04.113Z,5.10
2024-01-22T23:58:31.709Z,5.20
